»·PEaware :: UPS2974 KPDX-KSNA

UPS2974 :: KPDX-KSNA

FLIGHT INFORMATION

Flight Status: Arrived
Operator:
United Parcel Service
More flights by this operator :: More flights under this callsign
Pilot: Dominic B. (18944)
Aircraft: BOEING 767-300
(B763)
More flights by this aircraft type
Origin: KPDX Portland Intl
United States
Destination: KSNA John Wayne-Orange Co
United States
More flights between these airports :: More routes between these airports
Route: +HRMNS5 HRMNS J189 LMT FRA REBRG OHSEA2
File this flight plan on PilotEdge
Remarks: RMK / SIMBRIEF
Altitude:
(Current/Filed)
35,000ft
Speed:
(Current/Filed)
488kts
Departed: 21-Jul-20 05:34 PM
Arrived: 21-Jul-20 07:32 PM
Distance/Time
Traveled:
747nm/1:58
Distance/Time
To Go:
Arrived

Flight Plot

Page will automatically refresh every two minutes.


Map Options




Map Legend


Flown Route
Filed Route
Departure Airport
Arrival Airport
Navaid (VOR, NDB)
Fix

Horizontal Profiles

Position Reports

Time Latitude Longitude Heading Altitude Ground
Speed
21-Jul-20 16:29 45.585802 -122.604813 180 40ft 0kts
21-Jul-20 16:30 45.585802 -122.604813 180 40ft 0kts
21-Jul-20 16:31 45.585802 -122.604813 180 40ft 0kts
21-Jul-20 16:32 45.585802 -122.604813 180 40ft 0kts
21-Jul-20 16:33 45.585802 -122.604813 180 40ft 0kts
21-Jul-20 16:34 45.585802 -122.604813 180 40ft 0kts
21-Jul-20 16:35 45.585802 -122.604813 180 40ft 0kts
21-Jul-20 16:36 45.585802 -122.604813 180 40ft 0kts
21-Jul-20 16:37 45.585802 -122.604813 180 40ft 0kts
21-Jul-20 16:38 45.585802 -122.604813 180 40ft 0kts
21-Jul-20 16:39 45.585802 -122.604813 180 40ft 0kts
21-Jul-20 16:40 45.585802 -122.604813 180 40ft 0kts
21-Jul-20 16:41 45.585802 -122.604813 180 40ft 0kts
21-Jul-20 16:42 45.585802 -122.604813 180 40ft 0kts
21-Jul-20 16:43 45.585802 -122.604813 180 40ft 0kts
21-Jul-20 16:44 45.585802 -122.604813 180 40ft 0kts
21-Jul-20 16:45 45.585802 -122.604813 180 40ft 0kts
21-Jul-20 16:46 45.585802 -122.604813 180 40ft 0kts
21-Jul-20 16:46 45.585802 -122.604813 180 40ft 0kts
21-Jul-20 16:47 45.585802 -122.604813 180 40ft 0kts
21-Jul-20 16:49 45.585802 -122.604813 180 40ft 0kts
21-Jul-20 16:49 45.585802 -122.604813 180 40ft 0kts
21-Jul-20 16:50 45.585802 -122.604813 180 40ft 0kts
21-Jul-20 16:52 45.585802 -122.604813 180 40ft 0kts
21-Jul-20 16:52 45.585802 -122.604813 180 40ft 0kts
21-Jul-20 16:53 45.585802 -122.604813 180 40ft 0kts
21-Jul-20 16:54 45.585802 -122.604813 180 40ft 0kts
21-Jul-20 16:55 45.585802 -122.604813 180 40ft 0kts
21-Jul-20 16:56 45.585802 -122.604813 180 40ft 0kts
21-Jul-20 16:57 45.585802 -122.604813 180 40ft 0kts
21-Jul-20 16:58 45.585802 -122.604813 180 40ft 0kts
21-Jul-20 16:59 45.585802 -122.604813 180 40ft 0kts
21-Jul-20 17:00 45.585802 -122.604813 180 40ft 0kts
21-Jul-20 17:01 45.585802 -122.604813 180 40ft 0kts
21-Jul-20 17:02 45.585802 -122.604813 180 40ft 0kts
21-Jul-20 17:03 45.585802 -122.604813 180 40ft 0kts
21-Jul-20 17:04 45.585802 -122.604813 180 40ft 0kts
21-Jul-20 17:05 45.585802 -122.604813 180 40ft 0kts
21-Jul-20 17:06 45.585802 -122.604813 180 40ft 0kts
21-Jul-20 17:07 45.585802 -122.604813 180 40ft 0kts
21-Jul-20 17:08 45.585802 -122.604813 180 40ft 0kts
21-Jul-20 17:09 45.585802 -122.604813 180 40ft 0kts
21-Jul-20 17:10 45.585802 -122.604813 180 40ft 0kts
21-Jul-20 17:11 45.585802 -122.604813 180 40ft 0kts
21-Jul-20 17:12 45.585802 -122.604813 180 40ft 0kts
21-Jul-20 17:13 45.585802 -122.604813 180 40ft 0kts
21-Jul-20 17:14 45.585802 -122.604813 180 40ft 0kts
21-Jul-20 17:15 45.585802 -122.604813 180 40ft 0kts
21-Jul-20 17:16 45.585803 -122.604813 180 40ft 0kts
21-Jul-20 17:17 45.586193 -122.604810 180 40ft 2kts
21-Jul-20 17:18 45.586588 -122.605186 92 40ft 0kts
21-Jul-20 17:19 45.586589 -122.605242 89 40ft 0kts
21-Jul-20 17:20 45.586589 -122.605242 89 40ft 0kts
21-Jul-20 17:21 45.586519 -122.602810 102 40ft 13kts
21-Jul-20 17:22 45.584041 -122.596158 119 40ft 24kts
21-Jul-20 17:23 45.581185 -122.588866 118 40ft 16kts
21-Jul-20 17:24 45.579795 -122.584860 66 40ft 0kts
21-Jul-20 17:25 45.579795 -122.584860 66 40ft 0kts
21-Jul-20 17:26 45.579795 -122.584860 66 40ft 0kts
21-Jul-20 17:27 45.579795 -122.584860 66 40ft 0kts
21-Jul-20 17:28 45.579795 -122.584860 66 40ft 0kts
21-Jul-20 17:29 45.579795 -122.584860 66 40ft 0kts
21-Jul-20 17:30 45.579795 -122.584860 66 40ft 0kts
21-Jul-20 17:31 45.579819 -122.584793 59 40ft 0kts
21-Jul-20 17:32 45.580973 -122.585081 298 40ft 25kts
21-Jul-20 17:33 45.596053 -122.624168 299 255ft 167kts
21-Jul-20 17:34 45.621854 -122.683795 301 1615ft 197kts
21-Jul-20 17:35 45.653741 -122.761889 300 2719ft 247kts
21-Jul-20 17:36 45.664470 -122.855001 255 4850ft 256kts
21-Jul-20 17:37 45.619984 -122.924444 176 6778ft 278kts
21-Jul-20 17:38 45.544099 -122.893586 157 8703ft 289kts
21-Jul-20 17:39 45.473616 -122.834747 150 10364ft 312kts
21-Jul-20 17:40 45.391472 -122.764523 150 11577ft 380kts
21-Jul-20 17:41 45.297256 -122.684168 150 14286ft 402kts
21-Jul-20 17:42 45.199810 -122.601410 151 17092ft 417kts
21-Jul-20 17:43 45.098356 -122.515622 150 19696ft 432kts
21-Jul-20 17:44 44.993454 -122.427276 150 22095ft 447kts
21-Jul-20 17:45 44.875571 -122.372473 170 24319ft 457kts
21-Jul-20 17:46 44.748257 -122.340527 170 26458ft 472kts
21-Jul-20 17:47 44.617326 -122.308233 170 28377ft 486kts
21-Jul-20 17:48 44.484945 -122.275782 170 30851ft 481kts
21-Jul-20 17:49 44.353932 -122.243814 169 32744ft 477kts
21-Jul-20 17:50 44.224210 -122.212315 169 34168ft 474kts
21-Jul-20 17:51 44.094984 -122.181068 169 34922ft 469kts
21-Jul-20 17:52 43.966708 -122.150175 169 34943ft 469kts
21-Jul-20 17:53 43.838033 -122.119347 169 34945ft 469kts
21-Jul-20 17:54 43.709908 -122.088774 169 34945ft 469kts
21-Jul-20 17:55 43.581559 -122.058280 169 34945ft 469kts
21-Jul-20 17:56 43.453598 -122.028011 169 34945ft 468kts
21-Jul-20 17:57 43.325262 -121.997781 169 34945ft 468kts
21-Jul-20 17:58 43.197918 -121.967912 169 34944ft 464kts
21-Jul-20 17:59 43.070705 -121.938201 169 34944ft 463kts
21-Jul-20 18:00 42.943861 -121.908706 169 34941ft 461kts
21-Jul-20 18:01 42.816946 -121.879306 169 34945ft 462kts
21-Jul-20 18:02 42.689989 -121.850025 169 34944ft 461kts
21-Jul-20 18:03 42.563936 -121.821070 169 34944ft 461kts
21-Jul-20 18:04 42.436947 -121.792021 169 34944ft 461kts
21-Jul-20 18:05 42.310433 -121.763198 169 34944ft 461kts
21-Jul-20 18:06 42.183663 -121.734434 169 34943ft 462kts
21-Jul-20 18:07 42.056384 -121.709278 170 34943ft 462kts
21-Jul-20 18:08 41.929503 -121.685477 170 34943ft 462kts
21-Jul-20 18:09 41.801910 -121.661627 171 34945ft 461kts
21-Jul-20 18:10 41.674795 -121.637959 171 34945ft 460kts
21-Jul-20 18:11 41.548309 -121.614497 171 34952ft 460kts
21-Jul-20 18:12 41.420913 -121.590961 171 34962ft 460kts
21-Jul-20 18:13 41.294610 -121.567718 171 34961ft 459kts
21-Jul-20 18:14 41.168754 -121.538582 159 34965ft 458kts
21-Jul-20 18:15 41.051867 -121.471207 157 34960ft 459kts
21-Jul-20 18:16 40.932901 -121.409870 158 34960ft 459kts
21-Jul-20 18:17 40.813316 -121.349710 159 34963ft 460kts
21-Jul-20 18:18 40.693437 -121.289791 159 34964ft 460kts
21-Jul-20 18:19 40.571105 -121.243537 178 34969ft 460kts
21-Jul-20 18:20 40.442857 -121.241210 176 34962ft 460kts
21-Jul-20 18:21 40.315523 -121.229621 175 34962ft 460kts
21-Jul-20 18:22 40.187863 -121.216577 175 34961ft 460kts
21-Jul-20 18:23 40.060363 -121.203400 175 34961ft 461kts
21-Jul-20 18:24 39.932437 -121.190188 176 34962ft 462kts
21-Jul-20 18:25 39.804265 -121.177023 176 34963ft 462kts
21-Jul-20 18:26 39.675748 -121.163862 176 34963ft 462kts
21-Jul-20 18:27 39.547911 -121.150816 176 34898ft 462kts
21-Jul-20 18:29 39.419272 -121.137738 176 34890ft 463kts
21-Jul-20 18:30 39.291165 -121.124765 176 34907ft 463kts
21-Jul-20 18:31 39.162648 -121.111792 176 34924ft 463kts
21-Jul-20 18:32 39.034558 -121.098915 176 34943ft 463kts
21-Jul-20 18:33 38.906050 -121.086043 177 34889ft 463kts
21-Jul-20 18:34 38.777544 -121.073215 177 34870ft 463kts
21-Jul-20 18:35 38.650350 -121.060564 177 34875ft 463kts
21-Jul-20 18:36 38.521961 -121.047839 177 34879ft 462kts
21-Jul-20 18:37 38.394171 -121.035221 177 34885ft 463kts
21-Jul-20 18:38 38.265377 -121.022549 177 34896ft 463kts
21-Jul-20 18:39 38.136905 -121.009953 177 34904ft 463kts
21-Jul-20 18:40 38.014680 -120.961869 154 34924ft 470kts
21-Jul-20 18:41 37.898722 -120.883591 154 34921ft 474kts
21-Jul-20 18:42 37.782297 -120.804532 154 34859ft 474kts
21-Jul-20 18:43 37.665943 -120.725701 154 34837ft 474kts
21-Jul-20 18:44 37.549664 -120.647197 154 34837ft 475kts
21-Jul-20 18:45 37.433335 -120.568932 155 34838ft 475kts
21-Jul-20 18:45 37.336119 -120.503736 155 34837ft 475kts
21-Jul-20 18:46 37.219256 -120.425624 155 34837ft 476kts
21-Jul-20 18:48 37.082256 -120.334400 156 34832ft 477kts
21-Jul-20 18:48 36.984802 -120.269746 156 34832ft 478kts
21-Jul-20 18:49 36.867347 -120.192063 156 34833ft 479kts
21-Jul-20 18:50 36.749294 -120.114254 156 34829ft 479kts
21-Jul-20 18:51 36.630777 -120.036425 157 34827ft 481kts
21-Jul-20 18:52 36.511872 -119.958617 157 34826ft 483kts
21-Jul-20 18:53 36.392477 -119.880746 157 34826ft 483kts
21-Jul-20 18:54 36.273709 -119.803563 157 34827ft 483kts
21-Jul-20 18:55 36.154223 -119.726179 157 34827ft 484kts
21-Jul-20 18:56 36.034771 -119.649946 161 34824ft 481kts
21-Jul-20 18:57 35.906893 -119.633884 191 34829ft 461kts
21-Jul-20 18:58 35.780709 -119.656148 193 34820ft 458kts
21-Jul-20 18:59 35.653546 -119.667956 175 34826ft 473kts
21-Jul-20 19:00 35.528283 -119.608364 160 34819ft 486kts
21-Jul-20 19:01 35.404773 -119.540449 160 34877ft 488kts
21-Jul-20 19:02 35.281032 -119.472460 160 34913ft 489kts
21-Jul-20 19:03 35.156128 -119.404048 159 34905ft 491kts
21-Jul-20 19:04 35.031004 -119.335745 160 34897ft 492kts
21-Jul-20 19:05 34.905759 -119.267599 160 33827ft 492kts
21-Jul-20 19:06 34.781246 -119.200106 159 31649ft 492kts
21-Jul-20 19:07 34.658051 -119.126158 155 29397ft 495kts
21-Jul-20 19:08 34.538331 -119.049522 154 26967ft 481kts
21-Jul-20 19:09 34.425632 -118.976190 153 25476ft 424kts
21-Jul-20 19:10 34.325641 -118.909838 153 22765ft 402kts
21-Jul-20 19:11 34.229140 -118.846850 159 20886ft 387kts
21-Jul-20 19:12 34.128924 -118.806296 163 19141ft 374kts
21-Jul-20 19:13 34.031863 -118.768232 163 17516ft 363kts
21-Jul-20 19:14 33.936702 -118.731405 163 15893ft 353kts
21-Jul-20 19:15 33.844548 -118.695819 163 14296ft 344kts
21-Jul-20 19:16 33.754808 -118.661242 163 12738ft 334kts
21-Jul-20 19:17 33.666932 -118.629934 164 11220ft 327kts
21-Jul-20 19:18 33.604963 -118.562517 100 9979ft 298kts
21-Jul-20 19:19 33.612326 -118.468421 83 9067ft 279kts
21-Jul-20 19:20 33.622127 -118.376165 83 8066ft 276kts
21-Jul-20 19:21 33.631647 -118.284835 83 7059ft 269kts
21-Jul-20 19:22 33.640179 -118.200686 83 6013ft 249kts
21-Jul-20 19:23 33.648190 -118.120667 83 4636ft 237kts
21-Jul-20 19:24 33.670774 -118.046836 55 3161ft 243kts
21-Jul-20 19:25 33.706315 -117.985710 54 2007ft 202kts
21-Jul-20 19:26 33.738862 -117.929962 54 1996ft 206kts
21-Jul-20 19:27 33.765786 -117.875299 90 1996ft 182kts
21-Jul-20 19:28 33.750353 -117.825567 172 1936ft 144kts
21-Jul-20 19:29 33.714286 -117.844336 206 764ft 137kts
21-Jul-20 19:30 33.680158 -117.865993 208 62ft 132kts
21-Jul-20 19:31 33.669114 -117.871522 121 60ft 7kts
21-Jul-20 19:32 33.670676 -117.869351 41 60ft 13kts
21-Jul-20 19:33 33.673921 -117.865828 117 60ft 0kts

Navigation Log

Ident Type
Flight plan parsing failed, navigation log unavailable